Time;durP1;ratioP1;P1;durP2;ratioP2;P2;SDS_P1;SDS_P2;PMS_P1;PMS_P2;Temp;Humidity;BMP_temperature;BMP_pressure;BME280_temperature;BME280_humidity;BME280_pressure;Samples;Min_cycle;Max_cycle;Signal;HPM_P1;HPM_P2
2022/04/06 00:00:32;;;;;;;34.72;15.10;;;8.40;99.90;;;;;;5077089;28;20059;-89
2022/04/06 00:02:58;;;;;;;38.58;15.07;;;8.40;99.90;;;;;;5077227;28;20048;-89
2022/04/06 00:05:24;;;;;;;36.42;15.98;;;8.40;99.90;;;;;;5075543;28;20036;-89
2022/04/06 00:07:49;;;;;;;30.50;15.07;;;8.40;99.90;;;;;;5076789;28;20133;-89
2022/04/06 00:10:15;;;;;;;38.33;15.00;;;8.40;99.90;;;;;;5076700;28;20497;-90
2022/04/06 00:12:41;;;;;;;38.28;15.25;;;8.40;99.90;;;;;;5060072;28;20398;-90
2022/04/06 00:15:11;;;;;;;33.75;14.48;;;8.40;99.90;;;;;;5076556;28;20524;-90
2022/04/06 00:17:38;;;;;;;42.08;15.68;;;8.20;99.90;;;;;;5094489;28;20055;-90
2022/04/06 00:20:06;;;;;;;51.22;17.17;;;8.40;99.90;;;;;;5076169;28;20492;-90
2022/04/06 00:22:31;;;;;;;35.30;15.10;;;8.30;99.90;;;;;;5094206;28;20036;-89
2022/04/06 00:24:58;;;;;;;37.97;15.05;;;8.40;99.90;;;;;;5059614;28;20397;-89
2022/04/06 00:27:24;;;;;;;36.53;14.98;;;8.30;99.90;;;;;;5076669;28;20047;-90
2022/04/06 00:29:50;;;;;;;39.85;17.10;;;8.30;99.90;;;;;;5094327;28;20044;-89
2022/04/06 00:32:15;;;;;;;34.33;14.77;;;8.30;99.90;;;;;;5076340;28;20044;-89
2022/04/06 00:37:25;;;;;;;31.92;13.18;;;8.30;99.90;;;;;;5092697;28;20048;-88
2022/04/06 00:39:51;;;;;;;28.90;13.65;;;8.40;99.90;;;;;;5093173;28;20397;-90
2022/04/06 00:42:18;;;;;;;39.00;13.82;;;8.30;99.90;;;;;;5075883;28;20056;-88
2022/04/06 00:44:45;;;;;;;36.40;14.27;;;8.20;99.90;;;;;;5092931;28;20044;-89
2022/04/06 00:47:11;;;;;;;39.95;15.05;;;8.30;99.90;;;;;;5076096;28;20108;-89
2022/04/06 00:49:37;;;;;;;37.03;14.13;;;8.30;99.90;;;;;;5093633;28;20040;-90
2022/04/06 00:52:06;;;;;;;37.53;14.73;;;8.30;99.90;;;;;;5075592;28;20044;-89
2022/04/06 00:54:34;;;;;;;36.15;14.75;;;8.30;99.90;;;;;;5075973;28;20500;-88
2022/04/06 00:57:00;;;;;;;38.75;14.23;;;8.30;99.90;;;;;;5075907;28;20052;-89
2022/04/06 00:59:29;;;;;;;32.05;14.80;;;8.40;99.90;;;;;;5093152;28;20043;-90
2022/04/06 01:01:56;;;;;;;31.92;14.25;;;8.30;99.90;;;;;;5092737;28;20134;-90
2022/04/06 01:04:22;;;;;;;36.35;14.00;;;8.30;99.90;;;;;;5075587;28;20056;-89
2022/04/06 01:06:49;;;;;;;33.50;13.52;;;8.30;99.90;;;;;;5092287;28;20097;-89
2022/04/06 01:09:16;;;;;;;29.40;13.15;;;8.30;99.90;;;;;;5092141;28;20101;-88
2022/04/06 01:11:44;;;;;;;37.65;13.85;;;8.30;99.90;;;;;;5092441;28;20051;-89
2022/04/06 01:14:11;;;;;;;35.35;13.95;;;8.30;99.90;;;;;;5093477;28;20048;-90
2022/04/06 01:16:38;;;;;;;44.30;14.02;;;8.30;99.90;;;;;;5093171;28;20523;-90
2022/04/06 01:19:04;;;;;;;35.30;12.98;;;8.30;99.90;;;;;;5092348;28;20044;-89
2022/04/06 01:21:29;;;;;;;35.45;13.75;;;8.20;99.90;;;;;;5074747;28;20048;-90
2022/04/06 01:23:55;;;;;;;32.47;12.25;;;8.30;99.90;;;;;;5075514;28;20466;-89
2022/04/06 01:26:21;;;;;;;27.23;12.27;;;8.20;99.90;;;;;;5058687;28;20047;-89
2022/04/06 01:28:47;;;;;;;30.77;12.05;;;8.40;99.90;;;;;;5058684;28;20043;-88
2022/04/06 01:31:12;;;;;;;41.25;11.50;;;8.20;99.90;;;;;;5075290;28;20097;-89
2022/04/06 01:33:38;;;;;;;30.92;11.98;;;8.30;99.90;;;;;;5074700;28;20048;-89
2022/04/06 01:36:04;;;;;;;25.83;10.95;;;8.20;99.90;;;;;;5091268;28;20052;-89
2022/04/06 01:38:30;;;;;;;29.08;12.15;;;8.20;99.90;;;;;;5091871;28;20147;-89
2022/04/06 01:40:56;;;;;;;26.90;10.93;;;8.30;99.90;;;;;;5092230;28;20131;-89
2022/04/06 01:43:22;;;;;;;30.90;11.88;;;8.20;99.90;;;;;;5091912;28;20051;-88
2022/04/06 01:45:48;;;;;;;34.40;11.13;;;8.20;99.90;;;;;;5091919;28;20044;-89
2022/04/06 01:48:15;;;;;;;28.10;10.80;;;8.20;99.90;;;;;;5092854;28;20048;-89
2022/04/06 01:53:27;;;;;;;26.80;9.60;;;8.30;99.90;;;;;;5091840;28;20508;-89
2022/04/06 01:55:54;;;;;;;31.10;9.35;;;8.30;99.90;;;;;;5091371;28;20094;-88
2022/04/06 01:58:20;;;;;;;39.88;9.35;;;8.20;99.90;;;;;;5091577;28;20097;-89
2022/04/06 02:00:46;;;;;;;23.40;9.05;;;8.20;99.90;;;;;;5092669;28;20048;-89
2022/04/06 02:03:12;;;;;;;23.58;9.77;;;8.20;99.90;;;;;;5074954;28;20135;-88
2022/04/06 02:05:37;;;;;;;25.73;8.30;;;8.20;99.90;;;;;;5074091;28;20135;-89
2022/04/06 02:08:03;;;;;;;26.08;9.32;;;8.20;99.90;;;;;;5091293;28;20055;-89
2022/04/06 02:10:31;;;;;;;23.25;8.93;;;8.20;99.90;;;;;;5091583;28;20405;-88
2022/04/06 02:12:58;;;;;;;27.75;8.10;;;8.20;99.90;;;;;;5074688;28;20449;-89
2022/04/06 02:15:25;;;;;;;26.73;8.18;;;8.20;99.90;;;;;;5074708;28;20603;-89
2022/04/06 02:17:51;;;;;;;23.90;8.20;;;8.20;99.90;;;;;;5058032;28;20047;-89
2022/04/06 02:20:17;;;;;;;24.75;8.48;;;8.20;99.90;;;;;;5074322;28;20105;-89
2022/04/06 02:22:43;;;;;;;25.90;7.45;;;8.20;99.90;;;;;;5074301;28;20413;-86
2022/04/06 02:25:12;;;;;;;30.75;9.25;;;8.20;99.90;;;;;;5091435;28;20048;-88
2022/04/06 02:27:45;;;;;;;22.65;7.70;;;8.20;99.90;;;;;;5093100;28;20059;-88
2022/04/06 02:30:11;;;;;;;22.55;6.90;;;8.20;99.90;;;;;;5078677;28;20048;-88
2022/04/06 02:32:37;;;;;;;31.92;9.10;;;8.20;99.90;;;;;;5096538;28;20052;-88
2022/04/06 02:35:03;;;;;;;26.77;8.80;;;8.20;99.90;;;;;;5095080;28;20497;-89
2022/04/06 02:37:28;;;;;;;25.90;7.80;;;8.30;99.90;;;;;;5096604;28;20133;-88
2022/04/06 02:39:54;;;;;;;30.08;7.90;;;8.30;99.90;;;;;;5095728;28;20150;-89
2022/04/06 02:42:20;;;;;;;32.10;8.30;;;8.50;99.90;;;;;;5096376;28;20393;-89
2022/04/06 02:44:45;;;;;;;25.60;7.82;;;8.30;99.90;;;;;;5061279;28;20135;-89
2022/04/06 02:47:11;;;;;;;31.00;8.63;;;8.30;99.90;;;;;;5078499;28;20478;-89
2022/04/06 02:49:36;;;;;;;22.23;7.68;;;8.30;99.90;;;;;;5060857;28;20060;-89
2022/04/06 02:52:03;;;;;;;21.48;7.72;;;8.50;99.90;;;;;;5078276;28;20044;-89
2022/04/06 02:54:28;;;;;;;24.10;8.18;;;8.30;99.90;;;;;;5078347;28;20048;-88
2022/04/06 02:56:54;;;;;;;23.90;7.68;;;8.30;99.90;;;;;;5078431;28;20081;-88
2022/04/06 02:59:20;;;;;;;24.80;7.65;;;8.30;99.90;;;;;;5096085;28;20082;-88
2022/04/06 03:01:45;;;;;;;26.92;8.32;;;8.40;99.90;;;;;;5078168;28;20055;-89
2022/04/06 03:04:11;;;;;;;29.90;8.68;;;8.30;99.90;;;;;;5060439;28;20067;-88
2022/04/06 03:06:37;;;;;;;31.48;8.55;;;8.40;99.90;;;;;;5095783;28;20079;-88
2022/04/06 03:09:03;;;;;;;35.50;9.75;;;8.30;99.90;;;;;;5077788;28;20524;-91
2022/04/06 03:11:28;;;;;;;30.98;9.38;;;8.40;99.90;;;;;;5061032;28;20044;-89
2022/04/06 03:13:54;;;;;;;30.67;9.45;;;8.40;99.90;;;;;;5077788;28;20496;-88
2022/04/06 03:16:20;;;;;;;26.92;10.00;;;8.40;99.90;;;;;;5077603;28;20498;-88
2022/04/06 03:18:45;;;;;;;28.50;10.70;;;8.40;99.90;;;;;;5077364;28;20122;-88
2022/04/06 03:21:11;;;;;;;26.75;10.63;;;8.60;99.90;;;;;;5093768;28;20056;-87
2022/04/06 03:23:37;;;;;;;33.47;10.75;;;8.50;99.90;;;;;;5094644;28;20063;-87
2022/04/06 03:26:03;;;;;;;29.95;11.70;;;8.50;99.90;;;;;;5094547;28;20048;-87
2022/04/06 03:28:28;;;;;;;34.75;12.20;;;8.50;99.90;;;;;;5094572;28;20497;-88
2022/04/06 03:30:54;;;;;;;36.30;11.75;;;8.80;99.90;;;;;;5094326;28;20513;-88
2022/04/06 03:33:20;;;;;;;40.03;12.68;;;8.60;99.90;;;;;;5094198;28;20044;-88
2022/04/06 03:35:45;;;;;;;24.63;10.18;;;8.60;99.90;;;;;;5077065;28;20112;-88
2022/04/06 03:38:12;;;;;;;34.78;12.55;;;8.60;99.90;;;;;;5094079;28;20130;-89
2022/04/06 03:40:38;;;;;;;26.30;10.65;;;8.70;99.90;;;;;;5094060;28;20047;-88
2022/04/06 03:43:04;;;;;;;29.98;11.70;;;8.70;99.90;;;;;;5093904;28;20048;-89
2022/04/06 03:45:29;;;;;;;31.42;12.05;;;8.70;99.90;;;;;;5095086;28;20393;-88
2022/04/06 03:47:55;;;;;;;30.35;11.15;;;8.70;99.90;;;;;;5094030;28;20044;-88
2022/04/06 03:50:21;;;;;;;36.72;11.38;;;8.70;99.90;;;;;;5076970;28;20052;-88
2022/04/06 03:52:46;;;;;;;23.25;9.88;;;8.70;99.90;;;;;;5093392;28;20401;-87
2022/04/06 03:55:12;;;;;;;30.10;11.60;;;8.70;99.90;;;;;;5093889;28;20083;-87
2022/04/06 03:57:39;;;;;;;18.88;8.75;;;8.70;99.90;;;;;;5093931;28;20398;-88
2022/04/06 04:00:08;;;;;;;29.10;10.85;;;8.70;99.90;;;;;;5093866;28;20058;-88
2022/04/06 04:02:34;;;;;;;26.23;9.35;;;8.70;99.90;;;;;;5093561;28;20052;-88
2022/04/06 04:05:00;;;;;;;23.33;8.40;;;8.70;99.90;;;;;;5076715;28;20398;-89
2022/04/06 04:07:26;;;;;;;27.20;10.10;;;8.70;99.90;;;;;;5093568;28;20123;-88
2022/04/06 04:09:52;;;;;;;23.33;10.10;;;8.70;99.90;;;;;;5077029;28;20134;-89
2022/04/06 04:12:19;;;;;;;25.75;8.63;;;8.70;99.90;;;;;;5093360;28;20051;-88
2022/04/06 04:14:45;;;;;;;31.50;9.75;;;8.60;99.90;;;;;;5093596;28;20055;-88
2022/04/06 04:17:11;;;;;;;26.77;9.00;;;8.70;99.90;;;;;;5093490;28;20047;-88
2022/04/06 04:19:37;;;;;;;20.92;6.40;;;8.70;99.90;;;;;;5093180;28;20044;-87
2022/04/06 04:22:03;;;;;;;32.67;9.30;;;8.70;99.90;;;;;;5076365;28;20083;-88
2022/04/06 04:24:29;;;;;;;26.70;9.15;;;8.70;99.90;;;;;;5076811;28;20457;-89
2022/04/06 04:26:55;;;;;;;26.05;8.30;;;8.60;99.90;;;;;;5093360;28;20048;-89
2022/04/06 04:29:21;;;;;;;21.55;7.40;;;8.70;99.90;;;;;;5093088;28;20401;-88
2022/04/06 04:31:47;;;;;;;18.25;7.20;;;8.60;99.90;;;;;;5093153;28;20044;-86
2022/04/06 04:34:14;;;;;;;24.83;7.10;;;8.60;99.90;;;;;;5092253;28;20062;-87
2022/04/06 04:36:40;;;;;;;24.25;7.95;;;8.60;99.90;;;;;;5093002;28;20071;-87
2022/04/06 04:39:05;;;;;;;16.83;7.15;;;8.80;99.90;;;;;;5092807;28;20048;-88
2022/04/06 04:41:31;;;;;;;25.05;7.97;;;8.60;99.90;;;;;;5092828;28;20126;-88
2022/04/06 04:43:57;;;;;;;24.95;7.40;;;8.60;99.90;;;;;;5094153;28;20044;-88
2022/04/06 04:46:22;;;;;;;20.60;7.80;;;8.60;99.90;;;;;;5093016;28;20391;-87
2022/04/06 04:48:48;;;;;;;23.30;7.63;;;8.60;99.90;;;;;;5093848;28;20400;-87
2022/04/06 04:51:14;;;;;;;23.58;7.43;;;8.60;99.90;;;;;;5093066;28;20048;-87
2022/04/06 04:53:44;;;;;;;18.13;7.72;;;8.70;99.90;;;;;;5075355;28;20048;-88
2022/04/06 04:56:10;;;;;;;20.13;6.85;;;8.50;99.90;;;;;;5059333;28;20044;-87
2022/04/06 04:58:36;;;;;;;22.27;7.57;;;8.50;99.90;;;;;;5075248;28;20086;-88
2022/04/06 05:01:02;;;;;;;25.80;7.82;;;8.50;99.90;;;;;;5058732;28;20059;-86
2022/04/06 05:03:27;;;;;;;24.05;7.43;;;8.50;99.90;;;;;;5058600;28;20048;-88
2022/04/06 05:05:54;;;;;;;19.45;7.43;;;8.50;99.90;;;;;;5093033;28;20059;-87
2022/04/06 05:08:20;;;;;;;20.35;6.38;;;8.50;99.90;;;;;;5050278;28;20048;-87
2022/04/06 05:10:46;;;;;;;23.60;7.57;;;8.40;99.90;;;;;;5056841;28;20607;-88
2022/04/06 05:13:14;;;;;;;23.15;7.00;;;8.50;99.90;;;;;;5075033;28;20048;-88
2022/04/06 05:15:40;;;;;;;20.33;6.63;;;8.40;99.90;;;;;;5092609;28;20100;-88
2022/04/06 05:18:06;;;;;;;24.08;6.25;;;8.40;99.90;;;;;;5074923;28;20473;-87
2022/04/06 05:20:32;;;;;;;18.77;5.93;;;8.50;99.90;;;;;;5091957;28;20121;-86
2022/04/06 05:22:58;;;;;;;18.60;5.32;;;8.40;99.90;;;;;;5092141;28;20071;-88
2022/04/06 05:25:23;;;;;;;21.63;5.75;;;8.50;99.90;;;;;;5092373;28;20051;-87
2022/04/06 05:27:54;;;;;;;20.58;5.75;;;8.50;99.90;;;;;;5093357;28;20048;-87
2022/04/06 05:30:21;;;;;;;18.85;4.57;;;8.50;99.90;;;;;;5092217;28;20130;-88
2022/04/06 05:32:49;;;;;;;19.08;5.43;;;8.60;99.90;;;;;;5091847;28;20093;-87
2022/04/06 05:35:15;;;;;;;14.95;4.15;;;8.50;99.90;;;;;;5092946;28;20083;-88
2022/04/06 05:37:42;;;;;;;10.40;4.07;;;8.50;99.90;;;;;;5092833;28;20087;-87
2022/04/06 05:40:09;;;;;;;13.63;3.70;;;8.50;99.90;;;;;;5092998;28;20473;-87
2022/04/06 05:42:35;;;;;;;11.80;3.53;;;8.50;99.90;;;;;;5092016;28;20067;-87
2022/04/06 05:45:03;;;;;;;10.88;3.70;;;8.50;99.90;;;;;;5092007;28;20048;-88
2022/04/06 05:47:29;;;;;;;15.00;4.18;;;8.50;99.90;;;;;;5092874;28;20472;-86
2022/04/06 05:49:55;;;;;;;15.50;3.38;;;8.50;99.90;;;;;;5090822;28;20056;-87
2022/04/06 05:52:21;;;;;;;8.23;2.70;;;8.50;99.90;;;;;;5074658;28;20055;-87
2022/04/06 05:54:46;;;;;;;13.02;3.35;;;8.60;99.90;;;;;;5091760;28;20052;-87
2022/04/06 05:57:12;;;;;;;11.70;3.13;;;8.50;99.90;;;;;;5092763;28;20042;-87
2022/04/06 05:59:39;;;;;;;14.75;3.28;;;8.50;99.90;;;;;;5091851;28;20397;-88
2022/04/06 06:02:05;;;;;;;8.85;2.67;;;8.50;99.90;;;;;;5090950;28;20036;-87
2022/04/06 06:04:33;;;;;;;13.40;2.67;;;8.60;99.90;;;;;;5090546;28;20109;-89
2022/04/06 06:06:59;;;;;;;11.57;2.75;;;8.60;99.90;;;;;;5074252;28;20460;-88
2022/04/06 06:09:24;;;;;;;8.23;2.55;;;8.80;99.90;;;;;;5074524;28;20051;-88
2022/04/06 06:11:50;;;;;;;17.67;3.50;;;8.60;99.90;;;;;;5058077;28;20040;-87
2022/04/06 06:14:16;;;;;;;9.45;2.67;;;8.60;99.90;;;;;;5072211;28;20177;-87
2022/04/06 06:16:44;;;;;;;10.32;2.08;;;8.60;99.90;;;;;;5074896;28;20370;-87
2022/04/06 06:19:10;;;;;;;10.27;2.38;;;8.60;99.90;;;;;;5074531;28;20547;-87
2022/04/06 06:21:36;;;;;;;15.38;2.65;;;8.60;99.90;;;;;;5092525;28;20177;-87
2022/04/06 06:24:05;;;;;;;8.68;1.88;;;8.70;99.90;;;;;;5057841;28;20139;-90
2022/04/06 06:26:32;;;;;;;10.18;2.33;;;8.70;99.90;;;;;;5057689;28;20048;-87
2022/04/06 06:29:01;;;;;;;10.07;1.85;;;8.90;99.90;;;;;;5093248;28;20092;-88
2022/04/06 06:31:30;;;;;;;12.35;2.65;;;8.70;99.90;;;;;;5091181;28;20055;-88
2022/04/06 06:33:59;;;;;;;12.60;2.38;;;8.70;99.90;;;;;;5090419;28;20055;-88
2022/04/06 06:36:25;;;;;;;9.20;2.30;;;8.70;99.90;;;;;;5074244;28;20614;-87
2022/04/06 06:38:52;;;;;;;12.70;2.58;;;8.70;99.90;;;;;;5091712;28;20150;-87
2022/04/06 06:41:18;;;;;;;11.20;2.30;;;8.70;99.90;;;;;;5077712;28;20048;-87
2022/04/06 06:43:45;;;;;;;13.70;3.13;;;8.70;99.90;;;;;;5074792;28;20040;-88
2022/04/06 06:46:11;;;;;;;9.18;2.50;;;8.70;99.90;;;;;;5092899;28;20110;-88
2022/04/06 06:48:37;;;;;;;8.88;1.95;;;8.60;99.90;;;;;;5093350;28;20048;-87
2022/04/06 06:51:04;;;;;;;11.57;2.92;;;8.60;99.90;;;;;;5091510;28;20148;-88
2022/04/06 06:53:30;;;;;;;10.95;2.67;;;8.50;99.90;;;;;;5091385;28;20044;-89
2022/04/06 06:55:56;;;;;;;10.63;2.72;;;8.50;99.90;;;;;;5092948;28;20386;-88
2022/04/06 06:58:21;;;;;;;12.20;2.03;;;8.50;99.90;;;;;;5075425;28;20051;-87
2022/04/06 07:00:47;;;;;;;14.15;2.97;;;8.60;99.90;;;;;;5091309;28;20044;-87
2022/04/06 07:03:16;;;;;;;11.43;2.83;;;8.60;99.90;;;;;;5091519;28;20048;-87
2022/04/06 07:05:42;;;;;;;11.85;2.90;;;8.50;99.90;;;;;;5074458;28;20108;-87
2022/04/06 07:08:09;;;;;;;10.68;2.60;;;8.50;99.90;;;;;;5074134;28;20043;-86
2022/04/06 07:10:35;;;;;;;13.88;3.25;;;8.60;99.90;;;;;;5074387;28;20083;-86
2022/04/06 07:13:01;;;;;;;10.18;2.10;;;8.60;99.90;;;;;;5065792;28;20128;-88
2022/04/06 07:15:26;;;;;;;11.98;2.92;;;8.70;99.90;;;;;;5085508;28;20047;-86
2022/04/06 07:17:57;;;;;;;13.73;2.88;;;8.70;99.90;;;;;;5065481;28;20049;-87
2022/04/06 07:20:25;;;;;;;15.40;3.20;;;8.70;99.90;;;;;;5066123;28;20043;-87
2022/04/06 07:22:51;;;;;;;12.38;2.92;;;8.70;99.90;;;;;;5067572;28;20090;-87
2022/04/06 07:25:17;;;;;;;12.15;3.67;;;8.80;99.90;;;;;;5085868;28;20422;-88
2022/04/06 07:27:43;;;;;;;16.98;3.65;;;8.80;99.90;;;;;;5065869;28;20052;-87
2022/04/06 07:30:11;;;;;;;14.52;3.47;;;8.70;99.90;;;;;;5068038;28;20055;-89
2022/04/06 07:32:37;;;;;;;10.73;3.90;;;8.60;99.90;;;;;;5067632;28;20048;-89
2022/04/06 07:35:04;;;;;;;18.17;4.10;;;8.60;99.90;;;;;;5067896;28;20058;-90
2022/04/06 07:37:41;;;;;;;13.35;3.67;;;8.50;99.90;;;;;;5063903;28;20401;-91
2022/04/06 07:40:09;;;;;;;15.70;3.83;;;8.50;99.90;;;;;;5082684;28;20110;-90
2022/04/06 07:42:39;;;;;;;11.13;3.58;;;8.30;99.90;;;;;;5086005;28;20051;-88
2022/04/06 07:45:07;;;;;;;13.88;3.35;;;8.30;99.90;;;;;;5080217;28;20127;-89
2022/04/06 07:47:33;;;;;;;16.65;3.85;;;8.30;99.90;;;;;;5065511;28;20056;-90
2022/04/06 07:50:00;;;;;;;18.50;4.20;;;8.40;99.90;;;;;;5077411;28;20059;-90
2022/04/06 07:52:29;;;;;;;9.30;4.00;;;8.30;99.90;;;;;;5095427;28;20048;-88
2022/04/06 07:54:55;;;;;;;14.27;4.28;;;8.30;99.90;;;;;;5077441;28;20385;-89
2022/04/06 07:57:25;;;;;;;16.73;4.93;;;8.30;99.90;;;;;;5060511;28;20051;-90
2022/04/06 07:59:51;;;;;;;11.30;4.18;;;8.30;99.90;;;;;;5077302;28;20489;-89
2022/04/06 08:02:17;;;;;;;16.70;4.85;;;8.40;99.90;;;;;;5077391;28;20138;-90
2022/04/06 08:04:43;;;;;;;11.60;4.82;;;8.40;99.90;;;;;;5076852;28;20056;-90
2022/04/06 08:07:09;;;;;;;13.40;4.68;;;8.50;99.90;;;;;;5060574;28;20059;-90
2022/04/06 08:09:34;;;;;;;13.63;4.47;;;8.60;99.90;;;;;;5095095;28;20048;-89
2022/04/06 08:12:01;;;;;;;16.23;5.43;;;8.60;99.90;;;;;;5060668;28;20121;-90
2022/04/06 08:14:28;;;;;;;14.05;4.53;;;8.70;99.90;;;;;;5076664;28;20096;-90
2022/04/06 08:16:55;;;;;;;13.52;4.53;;;8.70;99.90;;;;;;5060412;28;20040;-89
2022/04/06 08:19:26;;;;;;;16.55;4.68;;;8.70;99.90;;;;;;5066369;28;20156;-90
2022/04/06 08:21:53;;;;;;;15.10;4.80;;;8.70;99.90;;;;;;5072543;28;20498;-90
2022/04/06 08:24:19;;;;;;;14.18;4.22;;;8.90;99.90;;;;;;5094834;28;20097;-92
2022/04/06 08:26:45;;;;;;;19.58;4.05;;;8.80;99.90;;;;;;5075567;28;20043;-90
2022/04/06 08:29:11;;;;;;;16.75;4.72;;;8.80;99.90;;;;;;5087633;28;20040;-90
2022/04/06 08:31:37;;;;;;;14.57;4.05;;;8.80;99.90;;;;;;5066662;28;20052;-88
2022/04/06 08:34:04;;;;;;;18.33;4.70;;;8.90;99.90;;;;;;5084291;28;20051;-89
2022/04/06 08:36:30;;;;;;;13.52;3.92;;;9.00;99.90;;;;;;5066771;28;20048;-89
2022/04/06 08:38:57;;;;;;;12.95;3.97;;;9.20;99.90;;;;;;5085223;28;20040;-89
2022/04/06 08:41:26;;;;;;;16.30;3.92;;;9.00;99.90;;;;;;5069003;28;20093;-88
2022/04/06 08:43:53;;;;;;;11.45;3.28;;;8.90;99.90;;;;;;5098662;28;20051;-90
2022/04/06 08:46:34;;;;;;;13.30;3.47;;;9.00;99.90;;;;;;5090560;28;20032;-90
2022/04/06 08:49:01;;;;;;;11.50;3.88;;;8.80;99.90;;;;;;5104365;28;20543;-92
2022/04/06 08:51:28;;;;;;;13.48;2.92;;;8.70;99.90;;;;;;5098879;28;20052;-88
2022/04/06 08:53:55;;;;;;;12.05;3.67;;;8.80;99.90;;;;;;5132853;22;20052;-87
2022/04/06 08:56:22;;;;;;;9.15;3.53;;;8.70;99.90;;;;;;5038242;28;20045;-89
2022/04/06 08:58:48;;;;;;;19.30;4.78;;;8.80;99.90;;;;;;5056947;28;20132;-90
2022/04/06 09:01:14;;;;;;;16.70;4.13;;;8.70;99.90;;;;;;5022313;28;20045;-89
2022/04/06 09:03:40;;;;;;;11.18;3.40;;;8.90;99.90;;;;;;5021801;28;20114;-92
2022/04/06 09:06:09;;;;;;;13.77;4.10;;;8.70;99.90;;;;;;5021188;28;20107;-90
2022/04/06 09:08:40;;;;;;;9.07;3.58;;;8.60;99.90;;;;;;5020896;28;20037;-91
2022/04/06 09:11:10;;;;;;;13.18;3.17;;;8.80;99.90;;;;;;5019884;28;20178;-91
2022/04/06 09:13:36;;;;;;;15.57;3.90;;;8.60;99.90;;;;;;5021242;28;20052;-89
2022/04/06 09:16:04;;;;;;;12.85;4.20;;;8.60;99.90;;;;;;5056452;28;20053;-90
2022/04/06 09:18:48;;;;;;;14.55;3.78;;;8.60;99.90;;;;;;5058552;28;20041;-88
2022/04/06 09:21:17;;;;;;;7.88;2.75;;;8.70;99.90;;;;;;5043199;28;20506;-88
2022/04/06 09:23:50;;;;;;;11.95;3.05;;;8.80;99.90;;;;;;5044772;28;20045;-89
2022/04/06 09:26:19;;;;;;;13.30;3.53;;;8.90;99.90;;;;;;5030497;28;20049;-89
2022/04/06 09:28:47;;;;;;;9.80;3.92;;;9.00;99.90;;;;;;5059415;28;20041;-90
2022/04/06 09:31:17;;;;;;;11.65;3.55;;;9.00;99.90;;;;;;5061279;28;20049;-89
2022/04/06 09:33:59;;;;;;;10.68;3.28;;;9.10;99.90;;;;;;5028781;28;20048;-90
2022/04/06 09:36:30;;;;;;;8.07;3.30;;;9.20;99.90;;;;;;5027665;28;20526;-89
2022/04/06 09:38:56;;;;;;;8.77;3.33;;;9.50;99.90;;;;;;5042851;28;20056;-88
2022/04/06 09:41:21;;;;;;;15.82;3.83;;;9.30;99.90;;;;;;5027130;28;20099;-89
2022/04/06 09:43:48;;;;;;;9.45;3.30;;;9.30;99.90;;;;;;5042052;28;20045;-88
2022/04/06 09:49:24;;;;;;;9.73;3.10;;;9.40;99.90;;;;;;5052745;28;20048;-88
2022/04/06 09:51:51;;;;;;;15.23;3.53;;;9.50;99.90;;;;;;5019066;28;20449;-88
2022/04/06 09:54:17;;;;;;;10.35;3.55;;;9.40;99.90;;;;;;5052095;28;20053;-90
2022/04/06 09:56:44;;;;;;;9.57;3.63;;;9.40;99.90;;;;;;5053424;28;20048;-89
2022/04/06 09:59:12;;;;;;;14.32;4.15;;;9.50;99.90;;;;;;5019892;28;20049;-89
2022/04/06 10:01:48;;;;;;;11.82;3.80;;;9.60;99.90;;;;;;5035596;28;20051;-87
2022/04/06 10:04:18;;;;;;;13.68;4.28;;;9.60;99.90;;;;;;5035226;28;20498;-89
2022/04/06 10:06:44;;;;;;;9.38;3.15;;;9.60;99.90;;;;;;5034571;28;20057;-89
2022/04/06 10:09:14;;;;;;;17.08;4.18;;;9.70;99.90;;;;;;5018973;28;20043;-87
2022/04/06 10:11:40;;;;;;;11.27;3.97;;;9.70;99.90;;;;;;5052979;28;20409;-88
2022/04/06 10:14:09;;;;;;;15.15;4.28;;;9.60;99.90;;;;;;5051668;28;20053;-89
2022/04/06 10:16:36;;;;;;;14.35;4.30;;;9.60;99.90;;;;;;5018937;28;20076;-89
2022/04/06 10:19:05;;;;;;;13.02;3.83;;;9.70;99.90;;;;;;5035061;28;20102;-89
2022/04/06 10:21:45;;;;;;;10.82;3.65;;;9.80;99.90;;;;;;5019019;28;20529;-89
2022/04/06 10:24:39;;;;;;;14.95;3.53;;;9.80;99.90;;;;;;5018807;28;20060;-89
2022/04/06 10:27:29;;;;;;;12.13;4.20;;;10.00;99.90;;;;;;5052011;28;20467;-88
2022/04/06 10:30:17;;;;;;;10.60;3.38;;;10.10;99.90;;;;;;5052095;28;20041;-87
2022/04/06 10:32:51;;;;;;;13.32;3.53;;;10.10;99.90;;;;;;5051519;28;20045;-89
2022/04/06 10:35:26;;;;;;;16.52;4.57;;;10.10;99.90;;;;;;5018441;28;20446;-87
2022/04/06 10:38:00;;;;;;;9.75;3.53;;;10.10;99.90;;;;;;5051788;28;20114;-91
2022/04/06 10:40:31;;;;;;;15.35;4.25;;;10.10;99.90;;;;;;5052086;28;20045;-88
2022/04/06 10:42:57;;;;;;;5.38;2.63;;;10.00;99.90;;;;;;5018243;28;20045;-86
2022/04/06 10:45:26;;;;;;;16.08;4.28;;;10.00;99.90;;;;;;5052530;28;20060;-89
2022/04/06 10:48:20;;;;;;;11.27;4.43;;;10.00;99.90;;;;;;5018584;28;20099;-88
2022/04/06 10:50:48;;;;;;;11.63;4.57;;;9.90;99.90;;;;;;5054930;28;20059;-87
2022/04/06 10:53:22;;;;;;;7.35;3.78;;;9.90;99.90;;;;;;5038140;28;20065;-87
2022/04/06 10:56:07;;;;;;;13.95;4.28;;;10.00;99.90;;;;;;5022003;28;20053;-85
2022/04/06 10:59:08;;;;;;;14.60;4.30;;;9.90;99.90;;;;;;5055404;28;20486;-87
2022/04/06 11:01:34;;;;;;;15.93;4.72;;;9.90;99.90;;;;;;4940127;29;20525;-88
2022/04/06 11:04:05;;;;;;;12.75;4.93;;;10.00;99.90;;;;;;4956401;29;20055;-87
2022/04/06 11:06:40;;;;;;;;;;;9.80;99.90;;;;;;4941317;29;20051;-86
2022/04/06 11:12:13;;;;;;;14.45;6.13;;;9.80;99.90;;;;;;4956411;29;20047;-88
2022/04/06 11:14:40;;;;;;;13.33;6.30;;;9.90;99.90;;;;;;4925533;29;20055;-87
2022/04/06 11:17:42;;;;;;;15.30;5.60;;;9.80;99.90;;;;;;4956791;29;20279;-89
2022/04/06 11:20:14;;;;;;;17.10;6.80;;;9.70;99.90;;;;;;4924967;29;20058;-89
2022/04/06 11:22:49;;;;;;;19.05;8.15;;;9.70;99.90;;;;;;4925031;29;20144;-88
2022/04/06 11:25:17;;;;;;;15.43;7.40;;;9.60;99.90;;;;;;4925490;29;20175;-88
2022/04/06 11:27:45;;;;;;;21.40;7.38;;;9.70;99.90;;;;;;4956870;29;20580;-87
2022/04/06 11:30:12;;;;;;;17.85;7.05;;;9.60;99.90;;;;;;4956761;29;20062;-88
2022/04/06 11:32:58;;;;;;;17.98;8.02;;;9.70;99.90;;;;;;4941038;29;20102;-88
2022/04/06 11:35:28;;;;;;;18.65;6.38;;;9.80;99.90;;;;;;4941349;29;20039;-92
2022/04/06 11:37:55;;;;;;;12.40;7.70;;;10.10;99.90;;;;;;5040268;28;20306;-89
2022/04/06 11:40:23;;;;;;;16.05;7.63;;;10.30;99.90;;;;;;5024621;28;20060;-89
2022/04/06 11:42:53;;;;;;;15.77;6.93;;;10.60;99.90;;;;;;5055339;28;20052;-88
2022/04/06 11:45:24;;;;;;;15.68;6.45;;;10.60;99.90;;;;;;5053986;28;20551;-87
2022/04/06 11:48:01;;;;;;;22.05;7.28;;;10.50;99.90;;;;;;5055420;28;20049;-88
2022/04/06 11:50:31;;;;;;;15.02;7.15;;;10.40;99.90;;;;;;5021996;28;20045;-91
2022/04/06 11:53:08;;;;;;;14.80;7.85;;;10.40;99.90;;;;;;5021940;28;20057;-88
2022/04/06 11:55:40;;;;;;;17.83;7.50;;;10.40;99.90;;;;;;5058089;28;20061;-89
2022/04/06 11:58:06;;;;;;;20.08;9.52;;;10.60;99.90;;;;;;5056207;28;20049;-88
2022/04/06 12:00:34;;;;;;;12.75;6.75;;;10.90;99.90;;;;;;5021355;28;20061;-88
2022/04/06 12:03:02;;;;;;;15.10;8.15;;;11.20;99.90;;;;;;5054249;28;20088;-89
2022/04/06 12:05:28;;;;;;;16.00;7.38;;;11.40;99.90;;;;;;5037798;28;20488;-89
2022/04/06 12:08:13;;;;;;;17.98;7.45;;;11.30;99.90;;;;;;5054083;28;20106;-88
2022/04/06 12:10:56;;;;;;;16.23;6.80;;;11.30;99.90;;;;;;5020862;28;20052;-87
2022/04/06 12:13:23;;;;;;;17.23;6.60;;;11.20;99.90;;;;;;5054032;28;20466;-88
2022/04/06 12:15:55;;;;;;;12.43;6.72;;;11.20;99.90;;;;;;5053601;28;20494;-87
2022/04/06 12:18:22;;;;;;;13.50;6.40;;;11.20;99.90;;;;;;5053892;28;20165;-88
2022/04/06 12:20:48;;;;;;;18.23;7.15;;;11.10;99.90;;;;;;5020232;28;20091;-87
2022/04/06 12:23:16;;;;;;;12.43;6.85;;;11.10;99.90;;;;;;5038191;28;20491;-87
2022/04/06 12:25:42;;;;;;;12.20;6.25;;;11.00;99.90;;;;;;5038530;28;20044;-87
2022/04/06 12:28:18;;;;;;;12.18;6.13;;;10.90;99.90;;;;;;5039016;28;20052;-87
2022/04/06 12:31:01;;;;;;;16.35;6.93;;;10.80;99.90;;;;;;5072842;28;20502;-86
2022/04/06 12:33:41;;;;;;;15.73;8.10;;;10.70;99.90;;;;;;5027824;28;20047;-85
2022/04/06 12:36:12;;;;;;;10.75;5.88;;;10.60;99.90;;;;;;5054709;28;20053;-85
2022/04/06 12:38:40;;;;;;;16.48;7.45;;;10.80;99.90;;;;;;5020403;28;20037;-85
2022/04/06 12:41:09;;;;;;;11.20;6.70;;;10.60;99.90;;;;;;5036558;28;20051;-87
2022/04/06 12:43:44;;;;;;;16.95;7.78;;;10.80;99.90;;;;;;5020156;28;20049;-86
2022/04/06 12:46:10;;;;;;;14.10;7.65;;;10.60;99.90;;;;;;5053026;28;20359;-87
2022/04/06 12:48:36;;;;;;;15.10;7.13;;;10.50;99.90;;;;;;5053726;28;20128;-85
2022/04/06 12:51:21;;;;;;;17.42;7.75;;;10.80;99.90;;;;;;5058110;28;20045;-86
2022/04/06 12:53:51;;;;;;;12.70;6.70;;;10.80;99.90;;;;;;5024430;28;20082;-87
2022/04/06 12:56:24;;;;;;;12.73;6.82;;;10.90;99.90;;;;;;5060312;28;20135;-87
2022/04/06 12:59:10;;;;;;;14.00;7.38;;;11.00;99.90;;;;;;5029519;28;20041;-85
2022/04/06 13:01:49;;;;;;;14.98;6.10;;;10.80;99.90;;;;;;5062061;28;20490;-87